BAN13 UKLL-UKLL
Flight info
| Callsign | BAN13 |
|---|---|
| Flight time | 0h 23m |
| Altitude | 32000 |
| Route | DIBED DCT TIVON DCT ARSIN DCT TIBRO/N0486F310 DCT RIDVA DCT BORDI DCT PADKO UM984 DIVKO G7 MAMES M984 BISBA DCT RODRA/N0488F330 M985 MGA N851 VJF L82 RUNAX UL82 IBALU UN857 TERTO N857 DEREV/N0496F340 N857 GUNET UN857 OPADU/N0492F360 UN857 NEURA/N0486F380 UN857 SATBU/N0485F400 UN857 NELOX UM424 TOLEP UM661 CRR UM792 MDP UW33 DONED UZ117 TOGNO/N0497F430 UZ117 IRAVU UT109 GAL UP664 PALIX |
| Aircraft | B744/H-SDE3FGHIM1M2RWXY/LB1 |
Departure
| Time | 2026-04-22 18:52 |
|---|---|
| Airport | Lviv International Airport (UKLL) |
Arrival
| Time | 2026-04-22 19:16 |
|---|---|
| Airport | Lviv International Airport (UKLL) |
| Time | Latitude | Longitude | Altitude | Speed | Heading |
|---|---|---|---|---|---|
| 2026-04-22 18:52 | 49.90213 | 23.48982 | 10099 ft | 298 kts | 269° |
| 2026-04-22 18:52 | 49.89583 | 23.45898 | 10221 ft | 308 kts | 241° |
| 2026-04-22 18:53 | 49.88010 | 23.43592 | 10247 ft | 323 kts | 214° |
| 2026-04-22 18:53 | 49.85781 | 23.42502 | 10243 ft | 341 kts | 187° |
| 2026-04-22 18:53 | 49.83470 | 23.43021 | 10239 ft | 334 kts | 160° |
| 2026-04-22 18:53 | 49.81545 | 23.44803 | 10235 ft | 324 kts | 142° |
| 2026-04-22 18:54 | 49.79847 | 23.47046 | 10233 ft | 319 kts | 138° |
| 2026-04-22 18:54 | 49.78219 | 23.49354 | 10232 ft | 317 kts | 137° |
| 2026-04-22 18:54 | 49.76610 | 23.51689 | 10231 ft | 317 kts | 136° |
| 2026-04-22 18:54 | 49.75009 | 23.54032 | 10234 ft | 317 kts | 136° |
| 2026-04-22 18:55 | 49.73411 | 23.56377 | 10236 ft | 316 kts | 136° |
| 2026-04-22 18:55 | 49.71815 | 23.58723 | 10231 ft | 316 kts | 136° |
| 2026-04-22 18:55 | 49.70219 | 23.61070 | 10232 ft | 316 kts | 136° |
| 2026-04-22 18:55 | 49.68602 | 23.63447 | 10100 ft | 324 kts | 136° |
| 2026-04-22 18:56 | 49.66996 | 23.65809 | 9747 ft | 319 kts | 136° |
| 2026-04-22 18:56 | 49.65410 | 23.68144 | 9428 ft | 314 kts | 136° |
| 2026-04-22 18:56 | 49.63840 | 23.70458 | 9057 ft | 311 kts | 136° |
| 2026-04-22 18:56 | 49.62284 | 23.72756 | 8704 ft | 308 kts | 136° |
| 2026-04-22 18:57 | 49.60739 | 23.75039 | 8395 ft | 304 kts | 136° |
| 2026-04-22 18:57 | 49.59236 | 23.77266 | 8178 ft | 297 kts | 136° |
| 2026-04-22 18:57 | 49.57758 | 23.79458 | 7875 ft | 294 kts | 136° |
| 2026-04-22 18:57 | 49.56297 | 23.81627 | 7553 ft | 291 kts | 136° |
| 2026-04-22 18:58 | 49.54841 | 23.83793 | 7238 ft | 290 kts | 136° |
| 2026-04-22 18:58 | 49.53400 | 23.85936 | 6908 ft | 288 kts | 136° |
| 2026-04-22 18:58 | 49.51967 | 23.88071 | 6606 ft | 286 kts | 136° |
| 2026-04-22 18:58 | 49.50586 | 23.90256 | 6273 ft | 285 kts | 128° |
| 2026-04-22 18:59 | 49.49674 | 23.92927 | 5961 ft | 281 kts | 106° |
| 2026-04-22 18:59 | 49.49564 | 23.95823 | 5731 ft | 262 kts | 73° |
| 2026-04-22 18:59 | 49.50357 | 23.98226 | 5342 ft | 250 kts | 50° |
| 2026-04-22 18:59 | 49.51426 | 24.00308 | 4911 ft | 246 kts | 47° |
| 2026-04-22 19:00 | 49.52529 | 24.02318 | 4442 ft | 246 kts | 46° |
| 2026-04-22 19:00 | 49.53640 | 24.04298 | 4196 ft | 243 kts | 46° |
| 2026-04-22 19:00 | 49.54751 | 24.06263 | 3994 ft | 243 kts | 46° |
| 2026-04-22 19:00 | 49.55864 | 24.08222 | 3823 ft | 242 kts | 46° |
| 2026-04-22 19:01 | 49.56937 | 24.10218 | 3632 ft | 244 kts | 58° |
| 2026-04-22 19:01 | 49.57389 | 24.12748 | 3465 ft | 247 kts | 82° |
| 2026-04-22 19:01 | 49.57528 | 24.15388 | 3274 ft | 247 kts | 85° |
| 2026-04-22 19:01 | 49.57624 | 24.18025 | 3115 ft | 246 kts | 86° |
| 2026-04-22 19:02 | 49.57707 | 24.20640 | 3038 ft | 245 kts | 86° |
| 2026-04-22 19:02 | 49.57783 | 24.23181 | 3018 ft | 230 kts | 86° |
| 2026-04-22 19:02 | 49.58191 | 24.25492 | 3015 ft | 220 kts | 52° |
| 2026-04-22 19:02 | 49.59437 | 24.26745 | 3028 ft | 215 kts | 10° |
| 2026-04-22 19:03 | 49.60916 | 24.26911 | 3027 ft | 211 kts | 358° |
| 2026-04-22 19:03 | 49.62385 | 24.26896 | 3028 ft | 206 kts | 356° |
| 2026-04-22 19:03 | 49.63778 | 24.26859 | 3024 ft | 196 kts | 356° |
| 2026-04-22 19:03 | 49.65130 | 24.26817 | 3022 ft | 193 kts | 356° |
| 2026-04-22 19:04 | 49.66466 | 24.26774 | 3031 ft | 192 kts | 356° |
| 2026-04-22 19:04 | 49.67795 | 24.26921 | 3021 ft | 196 kts | 20° |
| 2026-04-22 19:04 | 49.68709 | 24.28450 | 3026 ft | 203 kts | 71° |
| 2026-04-22 19:04 | 49.68547 | 24.30573 | 3031 ft | 205 kts | 121° |
| 2026-04-22 19:05 | 49.67624 | 24.32253 | 3041 ft | 205 kts | 135° |
| 2026-04-22 19:05 | 49.66622 | 24.33819 | 3032 ft | 204 kts | 136° |
| 2026-04-22 19:05 | 49.65612 | 24.35366 | 3027 ft | 205 kts | 136° |
| 2026-04-22 19:05 | 49.64601 | 24.36906 | 3030 ft | 204 kts | 136° |
| 2026-04-22 19:06 | 49.63590 | 24.38443 | 3027 ft | 205 kts | 136° |
| 2026-04-22 19:06 | 49.62576 | 24.39983 | 3026 ft | 205 kts | 136° |
| 2026-04-22 19:06 | 49.61564 | 24.41519 | 3023 ft | 203 kts | 136° |
| 2026-04-22 19:07 | 49.59493 | 24.44512 | 3012 ft | 201 kts | 153° |
| 2026-04-22 19:07 | 49.58147 | 24.44655 | 3014 ft | 196 kts | 204° |
| 2026-04-22 19:07 | 49.57263 | 24.43193 | 3018 ft | 189 kts | 255° |
| 2026-04-22 19:07 | 49.57337 | 24.41201 | 3027 ft | 188 kts | 284° |
| 2026-04-22 19:08 | 49.57665 | 24.39251 | 3027 ft | 188 kts | 286° |
| 2026-04-22 19:08 | 49.58010 | 24.37339 | 3027 ft | 187 kts | 286° |
| 2026-04-22 19:08 | 49.58365 | 24.35407 | 3025 ft | 187 kts | 286° |
| 2026-04-22 19:08 | 49.58720 | 24.33479 | 3022 ft | 187 kts | 286° |
| 2026-04-22 19:09 | 49.59074 | 24.31564 | 3024 ft | 184 kts | 286° |
| 2026-04-22 19:09 | 49.59501 | 24.29721 | 3025 ft | 181 kts | 295° |
| 2026-04-22 19:09 | 49.59884 | 24.28540 | 3021 ft | 181 kts | 300° |
| 2026-04-22 19:09 | 49.60853 | 24.26433 | 3023 ft | 182 kts | 309° |
| 2026-04-22 19:10 | 49.61700 | 24.24982 | 3031 ft | 181 kts | 313° |
| 2026-04-22 19:10 | 49.62590 | 24.23585 | 3028 ft | 183 kts | 314° |
| 2026-04-22 19:10 | 49.63504 | 24.22196 | 3054 ft | 180 kts | 315° |
| 2026-04-22 19:10 | 49.64385 | 24.20869 | 3029 ft | 174 kts | 315° |
| 2026-04-22 19:11 | 49.65246 | 24.19570 | 3056 ft | 172 kts | 315° |
| 2026-04-22 19:11 | 49.66101 | 24.18279 | 3035 ft | 172 kts | 315° |
| 2026-04-22 19:11 | 49.66956 | 24.16986 | 3033 ft | 171 kts | 314° |
| 2026-04-22 19:11 | 49.67809 | 24.15695 | 3029 ft | 171 kts | 314° |
| 2026-04-22 19:12 | 49.68663 | 24.14404 | 3032 ft | 172 kts | 315° |
| 2026-04-22 19:12 | 49.69505 | 24.13132 | 3042 ft | 172 kts | 315° |
| 2026-04-22 19:12 | 49.70359 | 24.11842 | 3053 ft | 172 kts | 315° |
| 2026-04-22 19:12 | 49.71214 | 24.10552 | 3055 ft | 172 kts | 315° |
| 2026-04-22 19:13 | 49.72070 | 24.09260 | 3053 ft | 172 kts | 315° |
| 2026-04-22 19:13 | 49.72921 | 24.07976 | 3029 ft | 170 kts | 315° |
| 2026-04-22 19:13 | 49.73779 | 24.06682 | 2877 ft | 170 kts | 315° |
| 2026-04-22 19:13 | 49.74610 | 24.05427 | 2634 ft | 171 kts | 315° |
| 2026-04-22 19:14 | 49.75455 | 24.04151 | 2402 ft | 169 kts | 315° |
| 2026-04-22 19:14 | 49.76284 | 24.02896 | 2173 ft | 165 kts | 315° |
| 2026-04-22 19:14 | 49.77102 | 24.01658 | 1917 ft | 164 kts | 315° |
| 2026-04-22 19:14 | 49.77914 | 24.00430 | 1726 ft | 164 kts | 315° |
| 2026-04-22 19:15 | 49.78473 | 23.99602 | 1558 ft | 168 kts | 315° |
| 2026-04-22 19:15 | 49.79596 | 23.97928 | 1277 ft | 170 kts | 314° |
| 2026-04-22 19:15 | 49.80435 | 23.96645 | 1078 ft | 167 kts | 316° |
| 2026-04-22 19:15 | 49.81173 | 23.95540 | 1075 ft | 122 kts | 316° |
| 2026-04-22 19:16 | 49.81642 | 23.94840 | 1073 ft | 67 kts | 315° |
| 2026-04-22 19:16 | 49.81860 | 23.94506 | 1076 ft | 33 kts | 315° |
| 2026-04-22 19:16 | 49.81984 | 23.94371 | 1077 ft | 11 kts | 351° |
| 2026-04-22 19:16 | 49.82006 | 23.94353 | 1076 ft | 6 kts | 294° |
| 2026-04-22 19:17 | 49.81991 | 23.94300 | 1077 ft | 8 kts | 185° |
| 2026-04-22 19:17 | 49.81911 | 23.94418 | 1074 ft | 23 kts | 128° |
| 2026-04-22 19:17 | 49.81770 | 23.94642 | 1077 ft | 38 kts | 136° |
| 2026-04-22 19:17 | 49.81520 | 23.95019 | 1076 ft | 58 kts | 135° |
| 2026-04-22 19:18 | 49.81284 | 23.95377 | 1075 ft | 30 kts | 136° |
| 2026-04-22 19:18 | 49.81223 | 23.95472 | 1077 ft | 5 kts | 116° |
| 2026-04-22 19:18 | 49.81225 | 23.95541 | 1075 ft | 8 kts | 58° |
| 2026-04-22 19:18 | 49.81267 | 23.95627 | 1077 ft | 12 kts | 54° |
| 2026-04-22 19:19 | 49.81272 | 23.95724 | 1076 ft | 11 kts | 124° |
| 2026-04-22 19:19 | 49.81210 | 23.95826 | 1076 ft | 15 kts | 136° |
| 2026-04-22 19:19 | 49.81151 | 23.95915 | 1076 ft | 5 kts | 128° |
| 2026-04-22 19:19 | 49.81156 | 23.95984 | 1075 ft | 9 kts | 43° |
| 2026-04-22 19:20 | 49.81205 | 23.96061 | 1078 ft | 7 kts | 46° |
| 2026-04-22 19:20 | 49.81207 | 23.96064 | 1078 ft | 0 kts | 46° |